Time;durP1;ratioP1;P1;durP2;ratioP2;P2;SDS_P1;SDS_P2;PMS_P1;PMS_P2;Temp;Humidity;BMP_temperature;BMP_pressure;BME280_temperature;BME280_humidity;BME280_pressure;Samples;Min_cycle;Max_cycle;Signal;HPM_P1;HPM_P2
2022/07/28 00:00:35;;;;;;;5.53;2.50;;;12.80;99.90;;;;;;7397087;19;20069;-83
2022/07/28 00:03:01;;;;;;;5.72;2.30;;;12.70;99.90;;;;;;7392664;19;20467;-84
2022/07/28 00:05:27;;;;;;;6.95;2.45;;;12.70;99.90;;;;;;7392081;19;20034;-82
2022/07/28 00:07:53;;;;;;;5.13;2.80;;;12.70;99.90;;;;;;7395654;19;20483;-83
2022/07/28 00:10:19;;;;;;;5.45;2.70;;;12.70;99.90;;;;;;7392843;19;20014;-83
2022/07/28 00:12:45;;;;;;;8.57;2.58;;;12.70;99.90;;;;;;7399586;19;20015;-80
2022/07/28 00:15:11;;;;;;;6.10;2.10;;;12.60;99.90;;;;;;7399696;19;20070;-80
2022/07/28 00:17:37;;;;;;;6.53;2.50;;;12.60;99.90;;;;;;7396640;19;20025;-83
2022/07/28 00:20:04;;;;;;;4.57;2.05;;;12.60;99.90;;;;;;7392269;19;20011;-83
2022/07/28 00:22:30;;;;;;;4.65;2.00;;;12.60;99.90;;;;;;7396264;19;20019;-82
2022/07/28 00:24:56;;;;;;;6.63;2.85;;;12.60;99.90;;;;;;7392251;19;20014;-83
2022/07/28 00:27:22;;;;;;;6.43;2.35;;;12.50;99.90;;;;;;7392989;19;20014;-83
2022/07/28 00:29:47;;;;;;;4.47;2.67;;;12.50;99.90;;;;;;7396316;19;20022;-83
2022/07/28 00:32:13;;;;;;;4.75;2.30;;;12.50;99.90;;;;;;7393855;19;20018;-82
2022/07/28 00:34:39;;;;;;;5.45;2.03;;;12.50;99.90;;;;;;7391024;19;20018;-83
2022/07/28 00:37:05;;;;;;;5.22;2.20;;;12.50;99.90;;;;;;7392915;19;20010;-83
2022/07/28 00:39:31;;;;;;;8.30;2.60;;;12.50;99.90;;;;;;7394292;19;20518;-84
2022/07/28 00:41:57;;;;;;;5.80;2.45;;;12.50;99.90;;;;;;7391688;19;20037;-82
2022/07/28 00:44:22;;;;;;;10.18;2.30;;;12.50;99.90;;;;;;7392466;19;20014;-82
2022/07/28 00:46:49;;;;;;;4.13;2.08;;;12.50;99.90;;;;;;7392911;19;20022;-82
2022/07/28 00:49:15;;;;;;;5.75;2.85;;;12.50;99.90;;;;;;7395185;19;20018;-82
2022/07/28 00:51:41;;;;;;;5.97;2.65;;;12.50;99.90;;;;;;7392342;19;20023;-83
2022/07/28 00:54:08;;;;;;;7.25;2.60;;;12.50;99.90;;;;;;7391279;19;20022;-83
2022/07/28 00:56:34;;;;;;;3.28;2.13;;;12.40;99.90;;;;;;7391286;19;20018;-83
2022/07/28 00:59:00;;;;;;;4.63;2.00;;;12.40;99.90;;;;;;7391924;19;20026;-83
2022/07/28 01:01:26;;;;;;;5.95;2.53;;;12.40;99.90;;;;;;7394379;19;20122;-83
2022/07/28 01:03:56;;;;;;;4.28;2.17;;;12.40;99.90;;;;;;7388419;19;20309;-82
2022/07/28 01:06:51;;;;;;;7.82;1.90;;;12.40;99.90;;;;;;7394268;19;20556;-83
2022/07/28 01:09:51;;;;;;;3.70;2.08;;;12.30;99.90;;;;;;7396136;19;20022;-83
2022/07/28 01:12:29;;;;;;;9.75;2.88;;;12.30;99.90;;;;;;7394395;19;20035;-83
2022/07/28 01:15:09;;;;;;;4.78;2.42;;;12.30;99.90;;;;;;7395962;19;20070;-83
2022/07/28 01:17:43;;;;;;;8.27;2.67;;;12.20;99.90;;;;;;7403932;19;20034;-84
2022/07/28 01:20:17;;;;;;;6.20;2.58;;;12.30;99.90;;;;;;7396544;19;20014;-84
2022/07/28 01:23:06;;;;;;;10.30;3.13;;;12.30;99.90;;;;;;7402026;19;20490;-83
2022/07/28 01:25:56;;;;;;;6.80;2.50;;;12.30;99.90;;;;;;7398737;19;20022;-84
2022/07/28 01:28:53;;;;;;;6.88;2.45;;;12.30;99.90;;;;;;7401623;19;20133;-84
2022/07/28 01:31:24;;;;;;;7.85;3.33;;;12.30;99.90;;;;;;7402237;19;20520;-83
2022/07/28 01:33:57;;;;;;;7.32;2.75;;;12.30;99.90;;;;;;7396662;19;20053;-84
2022/07/28 01:36:34;;;;;;;11.02;3.70;;;12.20;99.90;;;;;;7400886;19;20014;-84
2022/07/28 01:39:01;;;;;;;5.93;3.28;;;12.20;99.90;;;;;;7401517;19;20074;-83
2022/07/28 01:41:29;;;;;;;4.63;2.22;;;12.20;99.90;;;;;;7395408;19;20082;-83
2022/07/28 01:44:03;;;;;;;5.60;2.58;;;12.20;99.90;;;;;;7395788;19;20070;-84
2022/07/28 01:46:30;;;;;;;6.47;2.88;;;12.20;99.90;;;;;;7399040;19;20033;-83
2022/07/28 01:48:58;;;;;;;5.55;2.83;;;12.10;99.90;;;;;;7401466;19;20025;-83
2022/07/28 01:51:28;;;;;;;7.60;3.40;;;12.10;99.90;;;;;;7398891;19;20388;-83
2022/07/28 01:53:57;;;;;;;8.10;3.17;;;12.10;99.90;;;;;;7398888;19;20028;-83
2022/07/28 01:56:27;;;;;;;9.23;3.40;;;12.00;99.90;;;;;;7402349;19;20018;-82
2022/07/28 01:58:55;;;;;;;6.57;3.50;;;12.10;99.90;;;;;;7405714;19;20035;-82
2022/07/28 02:01:24;;;;;;;7.88;3.90;;;12.10;99.90;;;;;;7398054;19;20014;-82
2022/07/28 02:03:52;;;;;;;5.88;2.95;;;12.10;99.90;;;;;;7396761;19;20110;-83
2022/07/28 02:06:20;;;;;;;6.63;3.40;;;12.00;99.90;;;;;;7395463;19;20559;-83
2022/07/28 02:08:49;;;;;;;4.97;3.10;;;12.10;99.90;;;;;;7400534;19;20479;-83
2022/07/28 02:14:01;;;;;;;5.13;3.17;;;12.00;99.90;;;;;;7395876;19;20360;-83
2022/07/28 02:16:29;;;;;;;9.75;3.10;;;12.00;99.90;;;;;;7397622;19;20499;-83
2022/07/28 02:18:57;;;;;;;6.85;2.70;;;12.00;99.90;;;;;;7394824;19;20021;-83
2022/07/28 02:21:30;;;;;;;6.55;3.20;;;12.00;99.90;;;;;;7395739;19;20014;-83
2022/07/28 02:23:58;;;;;;;7.10;3.00;;;12.10;99.90;;;;;;7394469;19;20022;-83
2022/07/28 02:26:33;;;;;;;5.68;3.35;;;12.10;99.90;;;;;;7393720;19;20035;-83
2022/07/28 02:29:02;;;;;;;6.53;2.95;;;12.10;99.90;;;;;;7398053;19;20014;-83
2022/07/28 02:31:30;;;;;;;4.95;2.70;;;12.10;99.90;;;;;;7397371;19;20025;-83
2022/07/28 02:34:01;;;;;;;5.72;3.00;;;12.00;99.90;;;;;;7396283;19;20023;-82
2022/07/28 02:36:36;;;;;;;8.07;3.60;;;12.00;99.90;;;;;;7397958;19;20375;-83
2022/07/28 02:39:07;;;;;;;5.43;2.70;;;12.10;99.90;;;;;;7398356;19;20366;-83
2022/07/28 02:41:39;;;;;;;5.15;2.88;;;12.10;99.90;;;;;;7395294;19;20017;-83
2022/07/28 02:44:11;;;;;;;2.95;2.33;;;12.10;99.90;;;;;;7395243;19;20018;-83
2022/07/28 02:46:42;;;;;;;6.03;2.50;;;12.10;99.90;;;;;;7394392;19;20522;-83
2022/07/28 02:49:13;;;;;;;7.38;3.05;;;12.10;99.90;;;;;;7396612;19;20019;-83
2022/07/28 02:51:42;;;;;;;4.20;2.75;;;12.20;99.90;;;;;;7396711;19;20014;-83
2022/07/28 02:54:09;;;;;;;4.18;2.40;;;12.20;99.90;;;;;;7397014;19;20060;-83
2022/07/28 02:56:39;;;;;;;3.63;2.25;;;12.20;99.90;;;;;;7396685;19;20428;-84
2022/07/28 02:59:05;;;;;;;5.55;3.00;;;12.20;99.90;;;;;;7394355;19;20014;-83
2022/07/28 03:01:31;;;;;;;5.50;2.72;;;12.10;99.90;;;;;;7395133;19;20054;-83
2022/07/28 03:03:57;;;;;;;4.97;2.92;;;12.10;99.90;;;;;;7393995;19;20026;-83
2022/07/28 03:06:23;;;;;;;5.07;2.75;;;12.10;99.90;;;;;;7394229;19;20504;-83
2022/07/28 03:08:49;;;;;;;6.22;2.53;;;12.10;99.90;;;;;;7396106;19;20369;-83
2022/07/28 03:11:15;;;;;;;5.25;3.08;;;12.00;99.90;;;;;;7394684;19;20017;-83
2022/07/28 03:13:41;;;;;;;3.03;2.42;;;12.00;99.90;;;;;;7395808;19;20021;-83
2022/07/28 03:16:08;;;;;;;6.75;3.38;;;12.10;99.90;;;;;;7396283;19;20014;-83
2022/07/28 03:18:34;;;;;;;5.80;2.95;;;12.10;99.90;;;;;;7393854;19;20042;-83
2022/07/28 03:21:02;;;;;;;5.22;2.83;;;12.10;99.90;;;;;;7396247;19;20034;-83
2022/07/28 03:23:37;;;;;;;4.07;2.60;;;12.10;99.90;;;;;;7394719;19;20014;-83
2022/07/28 03:26:14;;;;;;;3.75;2.67;;;12.10;99.90;;;;;;7393269;19;20086;-83
2022/07/28 03:28:41;;;;;;;8.32;3.47;;;12.10;99.90;;;;;;7394920;19;20034;-81
2022/07/28 03:31:11;;;;;;;6.47;3.25;;;12.10;99.90;;;;;;7395050;19;20006;-82
2022/07/28 03:33:37;;;;;;;4.95;2.83;;;12.20;99.90;;;;;;7394180;19;20031;-83
2022/07/28 03:36:07;;;;;;;4.85;2.75;;;12.20;99.90;;;;;;7395712;19;20018;-82
2022/07/28 03:38:44;;;;;;;5.15;3.30;;;12.30;99.90;;;;;;7397320;19;20056;-82
2022/07/28 03:41:12;;;;;;;5.07;2.80;;;12.30;99.90;;;;;;7393725;19;20014;-83
2022/07/28 03:43:39;;;;;;;7.75;2.97;;;12.30;99.90;;;;;;7395371;19;20026;-82
2022/07/28 03:46:06;;;;;;;8.05;2.80;;;12.30;99.90;;;;;;7396977;19;20011;-83
2022/07/28 03:48:33;;;;;;;5.15;2.90;;;12.30;99.90;;;;;;7395069;19;20010;-81
2022/07/28 03:50:59;;;;;;;6.38;3.25;;;12.30;99.90;;;;;;7398935;19;20090;-79
2022/07/28 03:53:27;;;;;;;6.10;3.10;;;12.30;99.90;;;;;;7398944;19;20495;-83
2022/07/28 03:55:53;;;;;;;4.00;2.88;;;12.40;99.90;;;;;;7392818;19;20011;-83
2022/07/28 03:58:22;;;;;;;6.38;2.92;;;12.40;99.90;;;;;;7393959;19;20018;-83
2022/07/28 04:00:48;;;;;;;4.28;2.63;;;12.50;99.90;;;;;;7398334;19;20349;-83
2022/07/28 04:03:15;;;;;;;7.32;3.20;;;12.50;99.90;;;;;;7393764;19;20006;-82
2022/07/28 04:05:41;;;;;;;5.20;3.13;;;12.60;99.90;;;;;;7397047;19;20507;-83
2022/07/28 04:08:06;;;;;;;5.53;3.05;;;12.60;99.90;;;;;;7397933;19;20022;-83
2022/07/28 04:10:32;;;;;;;9.10;2.97;;;12.60;99.90;;;;;;7398194;19;20105;-83
2022/07/28 04:12:59;;;;;;;5.95;3.40;;;12.60;99.90;;;;;;7396656;19;20018;-83
2022/07/28 04:15:26;;;;;;;4.50;3.08;;;12.60;99.90;;;;;;7391217;19;20027;-83
2022/07/28 04:17:53;;;;;;;5.93;2.90;;;12.70;99.90;;;;;;7393524;19;20011;-83
2022/07/28 04:20:21;;;;;;;5.22;3.38;;;12.60;99.90;;;;;;7391834;19;20483;-83
2022/07/28 04:22:48;;;;;;;6.97;2.90;;;12.60;99.90;;;;;;7394014;19;20070;-82
2022/07/28 04:25:16;;;;;;;5.30;3.17;;;12.60;99.90;;;;;;7390248;19;20026;-83
2022/07/28 04:27:43;;;;;;;5.07;2.38;;;12.60;99.90;;;;;;7390737;19;20019;-95
2022/07/28 04:30:16;;;;;;;4.43;2.17;;;12.60;99.90;;;;;;7396650;19;20022;-81
2022/07/28 04:32:47;;;;;;;5.18;2.53;;;12.60;99.90;;;;;;7397315;19;20010;-82
2022/07/28 04:35:13;;;;;;;4.65;2.00;;;12.60;99.90;;;;;;7394953;19;20034;-82
2022/07/28 04:37:39;;;;;;;4.68;2.10;;;12.60;99.90;;;;;;7395189;19;20037;-82
2022/07/28 04:40:07;;;;;;;4.05;1.73;;;12.60;99.90;;;;;;7393286;19;20029;-82
2022/07/28 04:42:33;;;;;;;4.68;1.88;;;12.60;99.90;;;;;;7391070;19;20101;-82
2022/07/28 04:44:59;;;;;;;6.53;2.20;;;12.60;99.90;;;;;;7392694;19;20024;-81
2022/07/28 04:47:25;;;;;;;5.70;2.10;;;12.50;99.90;;;;;;7394746;19;20458;-81
2022/07/28 04:49:51;;;;;;;5.32;2.28;;;12.50;99.90;;;;;;7397677;19;20017;-81
2022/07/28 04:52:17;;;;;;;3.92;2.35;;;12.40;99.90;;;;;;7400175;19;20010;-81
2022/07/28 04:54:44;;;;;;;6.80;3.17;;;12.40;99.90;;;;;;7398942;19;20018;-82
2022/07/28 04:57:10;;;;;;;4.95;3.58;;;12.40;99.90;;;;;;7399942;19;20506;-81
2022/07/28 04:59:37;;;;;;;8.60;4.20;;;12.30;99.90;;;;;;7400241;19;20014;-81
2022/07/28 05:02:03;;;;;;;6.50;5.15;;;12.40;99.90;;;;;;7398771;19;20506;-82
2022/07/28 05:04:29;;;;;;;6.65;4.53;;;12.40;99.90;;;;;;7392916;19;20018;-82
2022/07/28 05:06:55;;;;;;;8.98;5.70;;;12.40;99.90;;;;;;7401256;19;20029;-81
2022/07/28 05:09:21;;;;;;;8.18;4.60;;;12.40;99.90;;;;;;7402762;19;20345;-81
2022/07/28 05:11:47;;;;;;;9.63;5.45;;;12.50;99.90;;;;;;7401435;19;20011;-82
2022/07/28 05:14:13;;;;;;;7.65;4.72;;;12.50;99.90;;;;;;7398427;19;20026;-82
2022/07/28 05:16:39;;;;;;;7.80;4.72;;;12.50;99.90;;;;;;7397083;19;20022;-82
2022/07/28 05:19:05;;;;;;;7.72;4.85;;;12.50;99.90;;;;;;7395714;19;20612;-82
2022/07/28 05:21:31;;;;;;;10.98;4.68;;;12.60;99.90;;;;;;7395247;19;20015;-82
2022/07/28 05:23:57;;;;;;;7.55;5.30;;;12.60;99.90;;;;;;7400851;19;20039;-82
2022/07/28 05:26:23;;;;;;;7.05;4.38;;;12.70;99.90;;;;;;7396269;19;20036;-82
2022/07/28 05:28:51;;;;;;;8.90;4.22;;;12.80;99.90;;;;;;7400955;19;20007;-81
2022/07/28 05:31:16;;;;;;;6.30;3.90;;;12.90;99.90;;;;;;7395364;19;20026;-82
2022/07/28 05:33:42;;;;;;;8.35;4.57;;;12.90;99.90;;;;;;7403386;19;20482;-82
2022/07/28 05:36:10;;;;;;;10.40;3.85;;;13.10;99.90;;;;;;7397931;19;20014;-81
2022/07/28 05:38:36;;;;;;;5.68;3.88;;;13.10;99.90;;;;;;7398067;19;20014;-82
2022/07/28 05:41:02;;;;;;;8.70;4.95;;;13.20;99.90;;;;;;7399460;19;20405;-81
2022/07/28 05:43:28;;;;;;;9.50;4.53;;;13.30;99.90;;;;;;7397608;19;20014;-82
2022/07/28 05:45:54;;;;;;;7.78;4.53;;;13.40;99.90;;;;;;7376902;19;20028;-78
2022/07/28 05:48:21;;;;;;;7.40;4.55;;;13.50;99.90;;;;;;7381767;19;20014;-89
2022/07/28 05:50:48;;;;;;;8.57;4.65;;;13.60;99.90;;;;;;7371167;19;20868;-80
2022/07/28 05:53:14;;;;;;;9.18;4.60;;;13.70;99.90;;;;;;7380227;19;20014;-86
2022/07/28 05:55:40;;;;;;;7.13;4.25;;;13.90;99.90;;;;;;7380589;19;22700;-80
2022/07/28 05:58:06;;;;;;;5.45;3.53;;;13.90;99.90;;;;;;7374139;19;20014;-81
2022/07/28 06:00:33;;;;;;;7.07;3.95;;;13.90;99.90;;;;;;7379892;19;20023;-80
2022/07/28 06:03:02;;;;;;;9.70;2.60;;;14.00;99.90;;;;;;7381129;19;20022;-80
2022/07/28 06:05:29;;;;;;;8.02;3.22;;;14.10;99.90;;;;;;7379511;19;20125;-80
2022/07/28 06:07:56;;;;;;;9.00;3.58;;;14.30;99.90;;;;;;7378170;19;20058;-80
2022/07/28 06:10:24;;;;;;;7.65;3.10;;;14.40;99.90;;;;;;7392065;19;20019;-80
2022/07/28 06:12:55;;;;;;;6.30;3.22;;;14.40;99.90;;;;;;7392045;19;20018;-77
2022/07/28 06:15:26;;;;;;;5.60;3.30;;;14.30;99.90;;;;;;7400771;19;20026;-78
2022/07/28 06:17:54;;;;;;;5.82;3.30;;;14.30;99.90;;;;;;7397435;19;20078;-77
2022/07/28 06:20:26;;;;;;;3.30;1.90;;;14.40;99.90;;;;;;7399241;19;20090;-77
2022/07/28 06:22:53;;;;;;;6.83;2.80;;;14.50;99.90;;;;;;7394297;19;20050;-80
2022/07/28 06:25:21;;;;;;;4.90;2.38;;;14.80;99.90;;;;;;7395523;19;20060;-80
2022/07/28 06:27:49;;;;;;;6.18;2.50;;;14.80;99.90;;;;;;7396538;19;20078;-80
2022/07/28 06:30:16;;;;;;;10.27;2.40;;;14.80;99.90;;;;;;7396830;19;20070;-80
2022/07/28 06:32:43;;;;;;;7.40;2.55;;;14.90;99.90;;;;;;7396880;19;20019;-80
2022/07/28 06:35:10;;;;;;;5.50;2.08;;;14.90;99.90;;;;;;7396994;19;20044;-79
2022/07/28 06:37:36;;;;;;;8.60;2.30;;;15.00;99.90;;;;;;7396182;19;20014;-80
2022/07/28 06:40:03;;;;;;;6.90;1.70;;;15.00;99.90;;;;;;7394646;19;20011;-80
2022/07/28 06:42:29;;;;;;;6.18;1.75;;;15.10;99.90;;;;;;7390070;19;20010;-80
2022/07/28 06:44:54;;;;;;;5.65;1.58;;;15.30;99.90;;;;;;7399124;19;20029;-80
2022/07/28 06:47:20;;;;;;;5.22;1.23;;;15.40;99.90;;;;;;7394964;19;20361;-80
2022/07/28 06:49:46;;;;;;;4.97;1.30;;;15.60;99.90;;;;;;7397102;19;20022;-80
2022/07/28 06:52:12;;;;;;;4.25;1.38;;;15.60;99.90;;;;;;7392761;19;20023;-80
2022/07/28 06:54:38;;;;;;;5.70;1.08;;;15.70;99.90;;;;;;7393102;19;20037;-80
2022/07/28 06:57:05;;;;;;;4.63;1.15;;;15.70;99.90;;;;;;7391206;19;20020;-81
2022/07/28 06:59:31;;;;;;;3.90;1.00;;;15.70;99.90;;;;;;7390288;19;20027;-80
2022/07/28 07:02:00;;;;;;;6.15;1.50;;;15.70;99.90;;;;;;7394257;19;20438;-81
2022/07/28 07:04:27;;;;;;;5.55;1.33;;;15.80;99.90;;;;;;7394849;19;20024;-81
2022/07/28 07:06:53;;;;;;;5.70;1.10;;;15.70;99.90;;;;;;7398290;19;20018;-80
2022/07/28 07:09:19;;;;;;;4.60;1.23;;;15.70;99.90;;;;;;7396217;19;20098;-81
2022/07/28 07:11:45;;;;;;;4.22;1.30;;;15.70;99.90;;;;;;7393385;19;20029;-81
2022/07/28 07:14:10;;;;;;;7.00;2.00;;;15.80;99.90;;;;;;7397079;19;20016;-80
2022/07/28 07:16:36;;;;;;;5.15;2.10;;;15.90;99.90;;;;;;7395286;19;20014;-80
2022/07/28 07:19:02;;;;;;;11.93;2.75;;;16.30;99.90;;;;;;7394571;19;20016;-81
2022/07/28 07:21:28;;;;;;;6.80;2.60;;;16.80;99.90;;;;;;7395352;19;20553;-81
2022/07/28 07:23:54;;;;;;;7.03;2.55;;;16.70;99.90;;;;;;7398654;19;20027;-79
2022/07/28 07:26:20;;;;;;;5.60;2.63;;;16.70;99.90;;;;;;7394155;19;20041;-80
2022/07/28 07:28:46;;;;;;;5.35;2.53;;;16.80;99.90;;;;;;7395560;19;20030;-81
2022/07/28 07:31:12;;;;;;;6.50;1.90;;;16.90;99.90;;;;;;7393592;19;20070;-81
2022/07/28 07:33:38;;;;;;;5.13;1.80;;;16.90;99.90;;;;;;7395413;19;20026;-80
2022/07/28 07:36:04;;;;;;;5.78;2.33;;;16.80;99.90;;;;;;7394497;19;20011;-81
2022/07/28 07:38:30;;;;;;;5.20;2.05;;;16.90;99.90;;;;;;7394341;19;20471;-81
2022/07/28 07:40:57;;;;;;;8.82;2.40;;;17.90;99.90;;;;;;7394431;19;20017;-81
2022/07/28 07:43:23;;;;;;;6.93;1.73;;;18.40;99.90;;;;;;7392355;19;20028;-82
2022/07/28 07:45:48;;;;;;;6.10;2.05;;;18.10;99.90;;;;;;7395154;19;20014;-81
2022/07/28 07:48:20;;;;;;;9.68;2.22;;;18.10;99.90;;;;;;7394950;19;20015;-82
2022/07/28 07:50:46;;;;;;;5.95;2.28;;;18.40;99.90;;;;;;7391718;19;20014;-81
2022/07/28 07:53:12;;;;;;;4.05;1.83;;;18.50;99.90;;;;;;7392132;19;20018;-82
2022/07/28 07:55:38;;;;;;;5.47;1.75;;;18.30;99.90;;;;;;7396038;19;20014;-81
2022/07/28 07:58:04;;;;;;;5.85;1.60;;;18.30;99.90;;;;;;7394895;19;20098;-82
2022/07/28 08:00:30;;;;;;;4.47;1.50;;;18.40;99.90;;;;;;7392841;19;20046;-82
2022/07/28 08:02:57;;;;;;;5.32;1.50;;;18.70;99.90;;;;;;7398213;19;20359;-81
2022/07/28 08:05:24;;;;;;;4.82;1.38;;;18.90;99.90;;;;;;7391518;19;20022;-82
2022/07/28 08:07:49;;;;;;;4.13;1.83;;;19.80;99.90;;;;;;7391130;19;20018;-81
2022/07/28 08:10:17;;;;;;;6.15;2.47;;;20.00;99.90;;;;;;7392253;19;20401;-81
2022/07/28 08:12:43;;;;;;;5.50;3.67;;;19.20;99.90;;;;;;7392705;19;20018;-82
2022/07/28 08:15:10;;;;;;;5.85;2.42;;;18.80;99.90;;;;;;7390813;19;20018;-81
2022/07/28 08:17:36;;;;;;;5.50;2.40;;;18.70;99.90;;;;;;7394405;19;20010;-82
2022/07/28 08:20:03;;;;;;;4.38;1.52;;;18.60;99.90;;;;;;7389923;19;20006;-81
2022/07/28 08:22:29;;;;;;;4.22;1.77;;;18.60;99.90;;;;;;7392887;19;20026;-81
2022/07/28 08:24:57;;;;;;;2.80;1.50;;;18.60;99.90;;;;;;7388328;19;20088;-81
2022/07/28 08:27:23;;;;;;;5.47;1.80;;;18.80;99.90;;;;;;7394392;19;20018;-82
2022/07/28 08:29:49;;;;;;;2.85;1.60;;;19.00;99.90;;;;;;7391820;19;20022;-82
2022/07/28 08:32:15;;;;;;;6.43;1.55;;;19.00;99.90;;;;;;7389817;19;20372;-81
2022/07/28 08:34:41;;;;;;;4.07;1.40;;;18.90;99.90;;;;;;7392479;19;20041;-82
2022/07/28 08:37:07;;;;;;;4.03;1.30;;;18.80;99.90;;;;;;7389562;19;20022;-82
2022/07/28 08:39:34;;;;;;;5.47;1.20;;;18.60;99.90;;;;;;7389101;19;20014;-82
2022/07/28 08:42:24;;;;;;;1.98;1.00;;;18.50;99.90;;;;;;7390592;19;20042;-81
2022/07/28 08:45:05;;;;;;;2.15;1.10;;;18.30;99.90;;;;;;7389266;19;20082;-82
2022/07/28 08:47:34;;;;;;;2.00;1.27;;;18.00;99.90;;;;;;7394241;19;20495;-81
2022/07/28 08:50:00;;;;;;;4.32;1.40;;;18.00;99.90;;;;;;7388815;19;20435;-81
2022/07/28 08:52:31;;;;;;;2.60;1.00;;;18.00;99.90;;;;;;7390627;19;20030;-82
2022/07/28 08:55:00;;;;;;;4.00;1.33;;;18.00;99.90;;;;;;7389633;19;20011;-82
2022/07/28 08:57:40;;;;;;;4.28;0.75;;;18.10;99.90;;;;;;7391972;19;20052;-81
2022/07/28 09:00:08;;;;;;;2.30;0.75;;;18.20;99.90;;;;;;7390846;19;20503;-82
2022/07/28 09:02:39;;;;;;;2.85;1.00;;;18.10;99.90;;;;;;7388527;19;20018;-80
2022/07/28 09:05:07;;;;;;;2.53;1.10;;;18.00;99.90;;;;;;7388385;19;20023;-82
2022/07/28 09:07:36;;;;;;;3.60;1.02;;;18.10;99.90;;;;;;7395520;19;20014;-81
2022/07/28 09:10:04;;;;;;;2.67;0.95;;;18.20;99.90;;;;;;7393455;19;20078;-82
2022/07/28 09:12:34;;;;;;;3.78;0.82;;;18.30;99.90;;;;;;7393489;19;20011;-81
2022/07/28 09:15:04;;;;;;;3.60;0.90;;;18.50;99.90;;;;;;7391418;19;20490;-82
2022/07/28 09:17:32;;;;;;;1.73;0.90;;;18.50;99.90;;;;;;7394348;19;20010;-81
2022/07/28 09:19:58;;;;;;;4.25;0.80;;;18.70;99.90;;;;;;7389764;19;20082;-82
2022/07/28 09:22:24;;;;;;;3.58;0.82;;;18.80;99.90;;;;;;7388262;19;20044;-82
2022/07/28 09:24:50;;;;;;;4.03;1.00;;;19.10;99.90;;;;;;7390877;19;20026;-82
2022/07/28 09:27:16;;;;;;;2.08;0.80;;;19.40;99.90;;;;;;7386105;19;20018;-81
2022/07/28 09:29:56;;;;;;;3.08;0.80;;;19.50;99.90;;;;;;7391761;19;20360;-81
2022/07/28 09:32:22;;;;;;;2.35;0.70;;;19.60;99.90;;;;;;7386053;19;20096;-82
2022/07/28 09:34:49;;;;;;;2.25;0.77;;;19.60;99.90;;;;;;7392843;19;20023;-81
2022/07/28 09:37:17;;;;;;;2.55;0.93;;;19.60;99.90;;;;;;7397098;19;20022;-81
2022/07/28 09:39:44;;;;;;;2.17;0.90;;;19.50;99.90;;;;;;7394789;19;20074;-82
2022/07/28 09:42:10;;;;;;;4.22;0.90;;;19.50;99.90;;;;;;7394012;19;20038;-81
2022/07/28 09:44:36;;;;;;;2.67;0.93;;;19.50;99.90;;;;;;7397909;19;20040;-81
2022/07/28 09:47:22;;;;;;;3.67;1.20;;;19.40;99.90;;;;;;7397995;19;20012;-82
2022/07/28 09:49:48;;;;;;;2.33;0.90;;;19.50;99.90;;;;;;7399576;19;20483;-81
2022/07/28 09:52:35;;;;;;;4.97;1.10;;;19.50;99.90;;;;;;7396566;19;20011;-82
2022/07/28 09:55:07;;;;;;;3.67;0.90;;;19.50;99.90;;;;;;7395011;19;20068;-82
2022/07/28 09:57:36;;;;;;;3.70;0.90;;;19.60;99.90;;;;;;7394261;19;20026;-83
2022/07/28 10:00:11;;;;;;;3.70;1.05;;;19.60;99.90;;;;;;7395306;19;20027;-84
2022/07/28 10:02:38;;;;;;;5.13;0.90;;;19.60;99.90;;;;;;7387762;19;20018;-81
2022/07/28 10:05:05;;;;;;;4.57;0.80;;;19.60;99.90;;;;;;7392936;19;20015;-81
2022/07/28 10:07:33;;;;;;;3.47;1.15;;;19.70;99.90;;;;;;7385115;19;20007;-80
2022/07/28 10:10:07;;;;;;;2.28;0.85;;;19.60;99.90;;;;;;7383876;19;20507;-80
2022/07/28 10:12:37;;;;;;;3.40;0.90;;;19.70;99.90;;;;;;7390134;19;20074;-76
2022/07/28 10:18:02;;;;;;;3.05;0.93;;;19.40;99.90;;;;;;7397897;19;20011;-80
2022/07/28 10:20:31;;;;;;;2.50;0.73;;;19.20;99.90;;;;;;7392866;19;20483;-79
2022/07/28 10:23:08;;;;;;;2.58;1.00;;;19.20;99.90;;;;;;7397238;19;20018;-80
2022/07/28 10:25:38;;;;;;;2.63;1.20;;;18.90;99.90;;;;;;7393825;19;20092;-81
2022/07/28 10:28:05;;;;;;;2.85;0.90;;;18.80;99.90;;;;;;7396629;19;20006;-82
2022/07/28 10:30:38;;;;;;;2.88;0.80;;;18.70;99.90;;;;;;7395845;19;20002;-81
2022/07/28 10:33:13;;;;;;;3.05;0.80;;;18.70;99.90;;;;;;7394164;19;20092;-82
2022/07/28 10:35:40;;;;;;;3.38;1.02;;;18.70;99.90;;;;;;7387119;19;20082;-81
2022/07/28 10:38:11;;;;;;;2.78;0.70;;;18.60;99.90;;;;;;7400278;19;20480;-80
2022/07/28 10:40:43;;;;;;;1.17;0.80;;;18.60;99.90;;;;;;7395258;19;20014;-81
2022/07/28 10:43:10;;;;;;;3.63;1.05;;;18.70;99.90;;;;;;7387297;19;20023;-80
2022/07/28 10:45:38;;;;;;;2.50;1.10;;;18.80;99.90;;;;;;7395248;19;20029;-81
2022/07/28 10:48:05;;;;;;;2.55;1.08;;;19.00;99.90;;;;;;7396292;19;20128;-81
2022/07/28 10:50:35;;;;;;;11.05;6.47;;;19.20;99.90;;;;;;7396520;19;20018;-82
2022/07/28 10:53:02;;;;;;;3.55;0.98;;;19.30;99.90;;;;;;7388399;19;20398;-82
2022/07/28 10:55:49;;;;;;;3.45;0.70;;;19.40;99.70;;;;;;7394827;19;20369;-80
2022/07/28 10:58:48;;;;;;;1.52;0.70;;;19.60;99.90;;;;;;7397783;19;20014;-81
2022/07/28 11:01:34;;;;;;;2.15;0.77;;;19.70;99.40;;;;;;7394097;19;20018;-81
2022/07/28 11:04:00;;;;;;;3.03;0.70;;;19.70;99.90;;;;;;7398224;19;20022;-81
2022/07/28 11:06:33;;;;;;;2.55;0.82;;;19.70;99.30;;;;;;7393839;19;20089;-82
2022/07/28 11:09:21;;;;;;;2.20;0.90;;;19.60;98.50;;;;;;7393897;19;20486;-82
2022/07/28 11:11:52;;;;;;;2.08;0.80;;;19.70;98.20;;;;;;7394221;19;20014;-82
2022/07/28 11:14:36;;;;;;;1.08;0.55;;;19.80;99.90;;;;;;7393527;19;20010;-82
2022/07/28 11:17:05;;;;;;;9.10;0.98;;;20.10;99.40;;;;;;7397340;19;20010;-82
2022/07/28 11:19:46;;;;;;;4.07;1.10;;;20.20;99.50;;;;;;7392077;19;20355;-82
2022/07/28 11:22:16;;;;;;;2.38;1.10;;;20.30;99.90;;;;;;7392044;19;20021;-82
2022/07/28 11:25:00;;;;;;;7.80;1.83;;;20.00;99.90;;;;;;7393948;19;20039;-81
2022/07/28 11:27:50;;;;;;;2.13;0.90;;;19.90;99.90;;;;;;7390088;19;20031;-81
2022/07/28 11:30:40;;;;;;;2.15;0.80;;;20.00;99.90;;;;;;7393579;19;20011;-81
2022/07/28 11:33:10;;;;;;;2.25;1.30;;;20.00;99.90;;;;;;7395319;19;20475;-82
2022/07/28 11:35:38;;;;;;;3.95;1.00;;;20.20;99.90;;;;;;7394452;19;20015;-81
2022/07/28 11:38:04;;;;;;;3.92;1.08;;;20.20;99.70;;;;;;7394651;19;20018;-81
2022/07/28 11:40:40;;;;;;;5.20;1.10;;;20.00;99.90;;;;;;7394661;19;20025;-81
2022/07/28 11:45:48;;;;;;;3.08;1.35;;;19.90;99.90;;;;;;7392993;19;20480;-80
2022/07/28 11:48:24;;;;;;;1.83;1.00;;;19.90;99.90;;;;;;7393651;19;20388;-81
2022/07/28 11:51:02;;;;;;;1.67;0.70;;;19.70;99.50;;;;;;7395189;19;20022;-81
2022/07/28 11:53:37;;;;;;;3.28;1.13;;;19.60;99.90;;;;;;7391331;19;20042;-81
2022/07/28 11:56:05;;;;;;;4.78;0.90;;;19.50;99.90;;;;;;7392814;19;20022;-81
2022/07/28 11:58:31;;;;;;;1.85;0.90;;;19.40;99.70;;;;;;7394430;19;20491;-82
2022/07/28 12:01:12;;;;;;;3.58;1.00;;;19.50;99.90;;;;;;7389916;19;20029;-81
2022/07/28 12:03:40;;;;;;;1.83;0.70;;;19.50;99.00;;;;;;7393490;19;20014;-81
2022/07/28 12:06:11;;;;;;;5.72;1.00;;;19.50;99.90;;;;;;7395191;19;20368;-80
2022/07/28 12:09:16;;;;;;;2.22;0.90;;;19.50;99.90;;;;;;7394879;19;20039;-81
2022/07/28 12:11:52;;;;;;;1.33;0.75;;;19.60;99.70;;;;;;7390892;19;20007;-81
2022/07/28 12:14:18;;;;;;;3.08;0.90;;;19.50;99.90;;;;;;7391241;19;20014;-81
2022/07/28 12:16:48;;;;;;;3.78;1.05;;;19.80;99.90;;;;;;7391204;19;20393;-81
2022/07/28 12:19:15;;;;;;;2.33;1.00;;;20.20;99.90;;;;;;7388022;19;20047;-82
2022/07/28 12:21:49;;;;;;;3.28;0.90;;;20.20;99.00;;;;;;7390598;19;20491;-81
2022/07/28 12:24:17;;;;;;;4.60;1.70;;;20.40;99.60;;;;;;7395033;19;20025;-81
2022/07/28 12:26:43;;;;;;;3.60;1.10;;;20.20;98.60;;;;;;7394688;19;20023;-80
2022/07/28 12:29:13;;;;;;;18.42;13.85;;;19.90;99.60;;;;;;7391873;19;20018;-81
2022/07/28 12:32:01;;;;;;;14.85;10.23;;;19.90;99.70;;;;;;7387611;19;20022;-81
2022/07/28 12:34:28;;;;;;;12.52;9.73;;;19.90;99.90;;;;;;7393844;19;20011;-82
2022/07/28 12:37:00;;;;;;;3.47;2.47;;;19.90;99.70;;;;;;7389927;19;20479;-81
2022/07/28 12:39:28;;;;;;;2.50;0.93;;;19.80;99.10;;;;;;7389611;19;20074;-81
2022/07/28 12:42:04;;;;;;;3.63;1.00;;;20.10;99.90;;;;;;7389253;19;20026;-81
2022/07/28 12:44:39;;;;;;;2.00;1.05;;;20.50;99.90;;;;;;7389553;19;20019;-81
2022/07/28 12:47:07;;;;;;;4.35;0.85;;;20.60;99.60;;;;;;7389410;19;20023;-81
2022/07/28 12:49:35;;;;;;;3.78;1.08;;;20.60;98.90;;;;;;7392791;19;20010;-80
2022/07/28 12:52:21;;;;;;;4.65;0.90;;;20.70;99.40;;;;;;7388620;19;20070;-81
2022/07/28 12:54:47;;;;;;;1.15;0.82;;;20.90;99.10;;;;;;7386849;19;20018;-81
2022/07/28 12:57:14;;;;;;;2.20;0.85;;;21.00;98.80;;;;;;7391786;19;20018;-82
2022/07/28 12:59:40;;;;;;;3.10;1.00;;;20.80;97.30;;;;;;7391540;19;20010;-80
2022/07/28 13:02:07;;;;;;;3.58;1.20;;;20.80;98.20;;;;;;7389119;19;20019;-83
2022/07/28 13:04:46;;;;;;;5.30;4.88;;;20.80;98.40;;;;;;7389372;19;20082;-81